McKinney, Kentucky
Current Conditions -  °F | °C
As of 4:55 PM on Monday 22 Dec 2014 (Local Time) from KDVK Reporting Station
Overcast Overcast  
Wind Chill: 54°   Ceiling: 11000
Heat Index: 54°   Visibility: 10mi
Dew Point: 43°   Wind: 7mph
Humidity: 67%   Direction: 160°SSE
Pressure: 29.81"   Gusts: NA
Location:  37.45°N, 84.76°W
Report Text: KDVK 222155Z AUTO 16006KT 10SM SCT038 SCT085 OVC110 12/06 A2981 RMK AO2
Loading
Personal Weather Stations






























Interactive Weather Map New forecast layout! Learn more

10-Day Weather Forecast

Advertisements
Track Severe Weather on mobile